Time;durP1;ratioP1;P1;durP2;ratioP2;P2;SDS_P1;SDS_P2;PMS_P1;PMS_P2;Temp;Humidity;BMP_temperature;BMP_pressure;BME280_temperature;BME280_humidity;BME280_pressure;Samples;Min_cycle;Max_cycle;Signal;HPM_P1;HPM_P2
2022/01/10 00:01:45;;;;;;;61.63;42.50;;;;;;;-1.43;100.00;100911.78;4973096;28;20027;-71
2022/01/10 00:04:10;;;;;;;62.75;40.88;;;;;;;-1.52;100.00;100912.19;4972359;28;20122;-72
2022/01/10 00:06:37;;;;;;;59.67;39.63;;;;;;;-1.63;100.00;100918.47;4973367;28;20027;-71
2022/01/10 00:09:03;;;;;;;67.35;44.15;;;;;;;-1.60;100.00;100929.03;4973134;28;20069;-71
2022/01/10 00:11:29;;;;;;;69.47;46.15;;;;;;;-1.52;100.00;100934.63;4973328;28;20596;-71
2022/01/10 00:13:55;;;;;;;78.22;45.20;;;;;;;-1.56;100.00;100941.34;4973217;28;20576;-70
2022/01/10 00:16:20;;;;;;;75.07;44.55;;;;;;;-1.54;100.00;100936.22;4972838;28;20039;-71
2022/01/10 00:18:45;;;;;;;79.65;47.83;;;;;;;-1.51;100.00;100942.50;4972942;28;20034;-71
2022/01/10 00:21:11;;;;;;;86.78;49.47;;;;;;;-1.49;100.00;100951.25;4973019;28;20035;-71
2022/01/10 00:23:36;;;;;;;83.40;48.70;;;;;;;-1.46;100.00;100950.53;4972811;28;20049;-70
2022/01/10 00:26:02;;;;;;;76.95;48.17;;;;;;;-1.48;100.00;100950.44;4973023;28;20035;-70
2022/01/10 00:28:29;;;;;;;86.38;50.05;;;;;;;-1.47;100.00;100947.06;4992044;28;20080;-71
2022/01/10 00:30:54;;;;;;;86.18;50.47;;;;;;;-1.41;100.00;100951.69;5053540;28;20476;-70
2022/01/10 00:33:19;;;;;;;86.57;50.17;;;;;;;-1.44;100.00;100942.03;5053568;28;20079;-71
2022/01/10 00:35:45;;;;;;;86.95;51.13;;;;;;;-1.41;100.00;100955.16;5053459;28;20111;-71
2022/01/10 00:38:10;;;;;;;85.20;49.60;;;;;;;-1.49;100.00;100945.16;5053546;28;20111;-70
2022/01/10 00:40:35;;;;;;;83.13;49.58;;;;;;;-1.53;100.00;100954.50;5053844;28;20017;-70
2022/01/10 00:43:01;;;;;;;86.25;50.83;;;;;;;-1.55;100.00;100961.28;5053532;28;20060;-71
2022/01/10 00:45:28;;;;;;;88.78;51.58;;;;;;;-1.52;100.00;100958.84;5053255;28;20028;-72
2022/01/10 00:47:58;;;;;;;82.47;50.05;;;;;;;-1.59;100.00;100968.03;5053337;28;20025;-71
2022/01/10 00:50:24;;;;;;;83.47;48.17;;;;;;;-1.64;100.00;100963.38;5053175;28;20529;-71
2022/01/10 00:52:50;;;;;;;87.18;51.05;;;;;;;-1.69;100.00;100975.19;5053237;28;20028;-72
2022/01/10 00:55:16;;;;;;;93.45;51.25;;;;;;;-1.70;100.00;100975.97;5053619;28;20032;-71
2022/01/10 00:57:42;;;;;;;95.97;54.20;;;;;;;-1.64;100.00;100986.72;5053058;28;20020;-71
2022/01/10 01:00:10;;;;;;;93.30;52.42;;;;;;;-1.71;100.00;100992.38;5053151;28;20056;-71
2022/01/10 01:02:35;;;;;;;87.82;47.13;;;;;;;-1.94;100.00;100990.25;5049241;28;20041;-71
2022/01/10 01:05:05;;;;;;;84.65;49.15;;;;;;;-1.95;100.00;100998.81;5053208;28;20036;-71
2022/01/10 01:07:30;;;;;;;89.90;51.65;;;;;;;-1.90;100.00;101004.28;5053015;28;20040;-71
2022/01/10 01:12:50;;;;;;;81.10;48.85;;;;;;;-1.95;100.00;101013.50;4997443;28;20038;-71
2022/01/10 01:15:23;;;;;;;95.28;52.60;;;;;;;-1.90;100.00;101013.75;5001481;28;20509;-71
2022/01/10 01:25:48;;;;;;;107.45;54.70;;;;;;;-1.93;100.00;101041.25;4998800;28;20499;-70
2022/01/10 01:28:13;;;;;;;106.93;53.85;;;;;;;-2.01;100.00;101041.63;5002004;28;20069;-71
2022/01/10 01:30:38;;;;;;;97.82;52.88;;;;;;;-1.98;100.00;101049.56;4999633;28;20110;-71
2022/01/10 01:33:04;;;;;;;96.10;53.60;;;;;;;-2.06;100.00;101049.13;5002627;28;20021;-72
2022/01/10 01:35:29;;;;;;;105.88;54.83;;;;;;;-2.11;100.00;101056.63;4999998;28;20034;-71
2022/01/10 01:37:55;;;;;;;108.70;56.33;;;;;;;-2.01;100.00;101055.50;5001571;28;20042;-71
2022/01/10 01:40:22;;;;;;;117.30;57.92;;;;;;;-1.99;100.00;101053.88;5000845;28;20483;-71
2022/01/10 01:42:47;;;;;;;105.10;56.78;;;;;;;-1.94;100.00;101059.31;5000399;28;20143;-70
2022/01/10 01:45:15;;;;;;;108.45;56.08;;;;;;;-1.98;100.00;101075.47;5001906;28;20057;-71
2022/01/10 01:47:43;;;;;;;97.57;54.17;;;;;;;-2.03;100.00;101075.22;4999820;28;20038;-71
2022/01/10 01:50:09;;;;;;;102.85;56.40;;;;;;;-1.96;100.00;101087.72;5034590;28;20041;-71
2022/01/10 01:52:35;;;;;;;107.80;56.47;;;;;;;-1.95;100.00;101088.66;5052309;28;20100;-71
2022/01/10 01:55:01;;;;;;;109.32;58.60;;;;;;;-1.90;100.00;101082.03;5052448;28;20036;-72
2022/01/10 01:57:27;;;;;;;117.50;60.17;;;;;;;-1.91;100.00;101092.31;5050657;28;20033;-72
2022/01/10 01:59:53;;;;;;;117.65;60.08;;;;;;;-1.93;100.00;101099.97;5052267;28;20419;-71
2022/01/10 02:02:18;;;;;;;123.63;61.50;;;;;;;-1.98;100.00;101096.22;5052516;28;20025;-72
2022/01/10 02:04:44;;;;;;;113.38;57.25;;;;;;;-2.04;100.00;101096.78;5052260;28;20036;-72
2022/01/10 02:07:09;;;;;;;118.55;60.50;;;;;;;-2.06;100.00;101103.53;5052255;28;20192;-72
2022/01/10 02:09:35;;;;;;;115.97;58.65;;;;;;;-2.11;100.00;101104.97;5052429;28;20083;-71
2022/01/10 02:12:00;;;;;;;112.60;58.00;;;;;;;-2.04;100.00;101111.41;5052035;28;20037;-71
2022/01/10 02:14:26;;;;;;;121.93;58.40;;;;;;;-2.06;100.00;101105.25;5052022;28;20028;-71
2022/01/10 02:16:55;;;;;;;116.82;57.65;;;;;;;-2.03;100.00;101106.31;5052266;28;20025;-72
2022/01/10 02:19:22;;;;;;;116.85;60.90;;;;;;;-1.94;100.00;101113.72;5052100;28;20071;-71
2022/01/10 02:21:48;;;;;;;113.22;59.15;;;;;;;-1.96;100.00;101115.34;5052263;28;20043;-71
2022/01/10 02:24:14;;;;;;;119.47;60.75;;;;;;;-1.91;100.00;101111.31;5052213;28;20456;-71
2022/01/10 02:26:39;;;;;;;114.80;61.58;;;;;;;-1.84;100.00;101116.06;5052197;28;20025;-71
2022/01/10 02:29:06;;;;;;;109.97;59.90;;;;;;;-1.86;100.00;101125.47;5054943;28;20053;-71
2022/01/10 02:31:37;;;;;;;127.95;61.92;;;;;;;-1.86;100.00;101128.06;5056004;28;20071;-71
2022/01/10 02:34:03;;;;;;;117.25;59.75;;;;;;;-1.87;100.00;101128.84;5055765;28;20050;-71
2022/01/10 02:36:28;;;;;;;114.32;62.08;;;;;;;-1.83;100.00;101123.03;5055788;28;20681;-71
2022/01/10 02:38:59;;;;;;;116.50;60.78;;;;;;;-1.84;100.00;101130.72;5054154;28;20068;-71
2022/01/10 02:41:26;;;;;;;117.57;61.47;;;;;;;-1.87;100.00;101141.81;5055403;28;20037;-71
2022/01/10 02:43:52;;;;;;;112.47;62.28;;;;;;;-1.84;100.00;101149.75;5055768;28;20431;-71
2022/01/10 02:46:19;;;;;;;113.68;57.88;;;;;;;-1.95;100.00;101156.03;5055683;28;20024;-71
2022/01/10 02:48:44;;;;;;;117.40;61.90;;;;;;;-1.82;100.00;101161.13;5055472;28;20036;-71
2022/01/10 02:51:09;;;;;;;116.22;61.83;;;;;;;-1.70;100.00;101170.41;5055466;28;20029;-71
2022/01/10 02:53:35;;;;;;;120.45;63.05;;;;;;;-1.63;100.00;101172.56;5055644;28;20053;-70
2022/01/10 02:56:00;;;;;;;120.63;62.65;;;;;;;-1.63;100.00;101170.88;5055313;28;20433;-71
2022/01/10 02:58:25;;;;;;;115.68;61.95;;;;;;;-1.67;100.00;101176.69;5055583;28;20025;-72
2022/01/10 03:00:51;;;;;;;108.28;60.03;;;;;;;-1.73;100.00;101189.28;5055535;28;20059;-71
2022/01/10 03:03:16;;;;;;;112.13;57.78;;;;;;;-1.68;100.00;101186.97;5053942;28;20387;-70
2022/01/10 03:05:41;;;;;;;111.20;59.60;;;;;;;-1.71;100.00;101198.03;5055306;28;20079;-71
2022/01/10 03:08:07;;;;;;;108.65;57.75;;;;;;;-1.68;100.00;101194.75;5055333;28;20035;-71
2022/01/10 03:10:32;;;;;;;109.93;58.97;;;;;;;-1.67;100.00;101200.03;5055109;28;20108;-70
2022/01/10 03:12:59;;;;;;;113.28;60.28;;;;;;;-1.64;100.00;101204.50;5055049;28;20028;-71
2022/01/10 03:15:25;;;;;;;112.18;60.50;;;;;;;-1.63;100.00;101207.19;5055258;28;20033;-72
2022/01/10 03:17:51;;;;;;;113.78;59.17;;;;;;;-1.64;100.00;101210.56;5054942;28;20081;-71
2022/01/10 03:20:16;;;;;;;111.60;58.05;;;;;;;-1.64;100.00;101214.88;5054180;28;20037;-71
2022/01/10 03:22:41;;;;;;;117.53;60.50;;;;;;;-1.64;100.00;101220.94;5054798;28;20115;-72
2022/01/10 03:25:07;;;;;;;109.93;58.85;;;;;;;-1.63;100.00;101219.22;5054872;28;20021;-71
2022/01/10 03:27:32;;;;;;;112.55;60.38;;;;;;;-1.65;100.00;101215.66;5054760;28;20492;-72
2022/01/10 03:29:58;;;;;;;117.57;60.78;;;;;;;-1.67;100.00;101222.47;5054544;28;20048;-71
2022/01/10 03:32:24;;;;;;;107.55;59.03;;;;;;;-1.65;100.00;101233.81;5054696;28;20037;-70
2022/01/10 03:34:49;;;;;;;106.22;58.63;;;;;;;-1.64;100.00;101233.03;5055143;28;20021;-73
2022/01/10 03:37:15;;;;;;;112.18;61.40;;;;;;;-1.61;100.00;101233.22;5054623;28;20040;-71
2022/01/10 03:39:40;;;;;;;107.50;60.15;;;;;;;-1.61;100.00;101243.56;5053507;28;20032;-71
2022/01/10 03:42:06;;;;;;;107.63;58.47;;;;;;;-1.67;100.00;101243.22;5054634;28;20116;-72
2022/01/10 03:44:31;;;;;;;98.88;58.05;;;;;;;-1.68;100.00;101262.16;5054467;28;20104;-72
2022/01/10 03:46:57;;;;;;;111.10;61.67;;;;;;;-1.68;100.00;101270.81;5052692;28;20048;-72
2022/01/10 03:49:25;;;;;;;111.90;60.60;;;;;;;-1.64;100.00;101274.50;5054527;28;20021;-72
2022/01/10 03:51:51;;;;;;;106.90;60.20;;;;;;;-1.56;100.00;101273.25;5054289;28;20040;-71
2022/01/10 03:54:17;;;;;;;116.03;62.38;;;;;;;-1.50;100.00;101275.31;5054251;28;20036;-71
2022/01/10 03:56:43;;;;;;;118.90;62.67;;;;;;;-1.50;100.00;101278.84;5053113;28;20486;-71
2022/01/10 03:59:08;;;;;;;112.00;59.97;;;;;;;-1.53;100.00;101286.44;5054039;28;20033;-71
2022/01/10 04:01:38;;;;;;;111.03;61.72;;;;;;;-1.53;100.00;101289.03;5054332;28;20032;-70
2022/01/10 04:04:03;;;;;;;110.00;60.97;;;;;;;-1.53;100.00;101283.84;5054082;28;20472;-71
2022/01/10 04:06:28;;;;;;;110.55;62.10;;;;;;;-1.49;100.00;101290.97;5054071;28;20140;-71
2022/01/10 04:08:54;;;;;;;112.22;60.88;;;;;;;-1.47;100.00;101289.38;5054164;28;20020;-71
2022/01/10 04:11:19;;;;;;;108.25;59.22;;;;;;;-1.46;100.00;101292.88;5054062;28;20423;-71
2022/01/10 04:13:45;;;;;;;105.25;58.78;;;;;;;-1.44;100.00;101297.34;5053881;28;20032;-71
2022/01/10 04:16:10;;;;;;;112.03;59.78;;;;;;;-1.44;100.00;101299.94;5054054;28;20029;-70
2022/01/10 04:18:35;;;;;;;110.03;61.28;;;;;;;-1.41;100.00;101300.13;5053851;28;20031;-70
2022/01/10 04:21:01;;;;;;;107.47;61.30;;;;;;;-1.34;100.00;101297.88;5053731;28;20028;-70
2022/01/10 04:23:26;;;;;;;105.28;60.92;;;;;;;-1.33;100.00;101303.16;5053865;28;20037;-71
2022/01/10 04:25:51;;;;;;;111.47;60.45;;;;;;;-1.33;100.00;101304.88;5053658;28;20033;-70
2022/01/10 04:28:17;;;;;;;113.18;62.67;;;;;;;-1.32;100.00;101320.53;5053428;28;20128;-70
2022/01/10 04:30:44;;;;;;;111.18;60.97;;;;;;;-1.30;100.00;101318.91;5053734;28;20108;-70
2022/01/10 04:33:10;;;;;;;107.18;61.97;;;;;;;-1.26;100.00;101328.69;5052279;28;20021;-70
2022/01/10 04:35:36;;;;;;;106.82;61.05;;;;;;;-1.21;100.00;101334.13;5049670;28;20055;-70
2022/01/10 04:38:02;;;;;;;100.05;59.83;;;;;;;-1.21;100.00;101328.94;5053692;28;20061;-71
2022/01/10 04:40:27;;;;;;;107.60;60.42;;;;;;;-1.21;100.00;101339.31;5053289;28;20028;-71
2022/01/10 04:42:53;;;;;;;104.40;60.15;;;;;;;-1.22;100.00;101347.94;5053298;28;20106;-71
2022/01/10 04:45:19;;;;;;;105.32;61.28;;;;;;;-1.16;100.00;101357.78;5053393;28;20028;-70
2022/01/10 04:47:44;;;;;;;103.55;61.17;;;;;;;-1.16;100.00;101371.66;5053562;28;20481;-70
2022/01/10 04:52:35;;;;;;;106.15;61.28;;;;;;;-1.16;100.00;101375.94;5049246;28;20033;-71
2022/01/10 04:55:01;;;;;;;103.68;61.50;;;;;;;-1.17;100.00;101377.63;5053373;28;20032;-71
2022/01/10 04:57:27;;;;;;;107.80;60.00;;;;;;;-1.14;100.00;101385.59;5053274;28;20491;-71
2022/01/10 04:59:52;;;;;;;103.13;59.72;;;;;;;-1.09;100.00;101386.78;5052906;28;20021;-69
2022/01/10 05:02:18;;;;;;;111.90;63.00;;;;;;;-0.99;100.00;101390.84;5053170;28;20564;-71
2022/01/10 05:04:44;;;;;;;111.07;64.43;;;;;;;-0.96;100.00;101398.81;5053180;28;20033;-71
2022/01/10 05:07:09;;;;;;;102.78;63.53;;;;;;;-0.93;100.00;101408.47;5052962;28;20383;-70
2022/01/10 05:09:35;;;;;;;116.75;64.05;;;;;;;-0.92;100.00;101418.03;5052862;28;20033;-71
2022/01/10 05:12:00;;;;;;;102.93;61.95;;;;;;;-0.92;100.00;101425.81;5053063;28;20086;-70
2022/01/10 05:14:26;;;;;;;104.53;62.70;;;;;;;-0.94;100.00;101427.44;5046043;28;20033;-70
2022/01/10 05:16:52;;;;;;;103.57;60.35;;;;;;;-0.95;100.00;101430.84;5051391;28;20032;-71
2022/01/10 05:19:17;;;;;;;109.10;61.50;;;;;;;-0.93;100.00;101430.13;5052983;28;20113;-70
2022/01/10 05:21:42;;;;;;;107.95;60.28;;;;;;;-0.91;100.00;101441.50;5052798;28;20074;-69
2022/01/10 05:24:08;;;;;;;104.53;60.20;;;;;;;-0.89;100.00;101428.59;5052668;28;20033;-71
2022/01/10 05:26:35;;;;;;;110.30;63.88;;;;;;;-0.83;100.00;101448.84;5053226;28;20036;-71
2022/01/10 05:29:01;;;;;;;105.68;61.63;;;;;;;-0.84;100.00;101445.38;5052558;28;20060;-70
2022/01/10 05:31:28;;;;;;;111.18;63.63;;;;;;;-0.83;100.00;101451.44;5048491;28;20029;-71
2022/01/10 05:33:53;;;;;;;113.25;62.20;;;;;;;-0.83;100.00;101451.44;5052767;28;20029;-71
2022/01/10 05:36:19;;;;;;;105.35;64.20;;;;;;;-0.85;100.00;101460.84;5052523;28;20028;-70
2022/01/10 05:38:44;;;;;;;105.03;61.78;;;;;;;-0.84;100.00;101466.13;5052637;28;20491;-71
2022/01/10 05:41:10;;;;;;;103.40;61.65;;;;;;;-0.84;100.00;101471.31;5052735;28;20028;-71
2022/01/10 05:43:35;;;;;;;110.90;63.53;;;;;;;-0.81;100.00;101475.81;5052657;28;20482;-70
2022/01/10 05:46:03;;;;;;;106.82;62.78;;;;;;;-0.78;100.00;101482.06;5052909;28;20383;-71
2022/01/10 05:48:30;;;;;;;110.10;63.97;;;;;;;-0.76;100.00;101479.56;5052444;28;20027;-71
2022/01/10 05:50:56;;;;;;;106.32;62.03;;;;;;;-0.74;100.00;101478.88;5048438;28;20040;-71
2022/01/10 05:53:22;;;;;;;106.90;61.85;;;;;;;-0.72;100.00;101486.75;5052533;28;20025;-70
2022/01/10 05:55:48;;;;;;;98.07;60.85;;;;;;;-0.72;100.00;101499.72;5052288;28;20029;-70
2022/01/10 05:58:14;;;;;;;105.20;61.92;;;;;;;-0.75;100.00;101507.34;5052357;28;20078;-71
2022/01/10 06:00:40;;;;;;;105.63;63.88;;;;;;;-0.74;100.00;101504.84;5052438;28;20028;-70
2022/01/10 06:03:05;;;;;;;105.50;63.20;;;;;;;-0.73;100.00;101493.66;5053713;28;20029;-70
2022/01/10 06:05:31;;;;;;;104.10;62.08;;;;;;;-0.75;100.00;101503.03;5056463;28;20033;-70
2022/01/10 06:07:58;;;;;;;105.47;62.00;;;;;;;-0.77;100.00;101509.84;5052633;28;20388;-70
2022/01/10 06:10:24;;;;;;;102.15;61.50;;;;;;;-0.73;100.00;101517.03;5056237;28;20021;-70
2022/01/10 06:12:49;;;;;;;100.78;61.83;;;;;;;-0.74;100.00;101519.53;5056307;28;20029;-71
2022/01/10 06:15:17;;;;;;;106.40;62.10;;;;;;;-0.74;100.00;101528.19;5055632;28;20449;-71
2022/01/10 06:17:43;;;;;;;105.28;62.42;;;;;;;-0.73;100.00;101516.09;5046711;28;20037;-69
2022/01/10 06:20:08;;;;;;;104.22;61.67;;;;;;;-0.65;100.00;101524.38;5053588;28;20035;-71
2022/01/10 06:22:34;;;;;;;107.78;63.28;;;;;;;-0.67;100.00;101536.38;5053463;28;20032;-72
2022/01/10 06:25:00;;;;;;;106.25;62.47;;;;;;;-0.68;100.00;101551.06;5053904;28;20060;-71
2022/01/10 06:27:25;;;;;;;101.47;61.78;;;;;;;-0.67;100.00;101551.94;5053705;28;20021;-71
2022/01/10 06:29:51;;;;;;;104.32;63.95;;;;;;;-0.68;100.00;101556.25;5053036;28;20041;-70
2022/01/10 06:32:16;;;;;;;105.03;63.33;;;;;;;-0.65;100.00;101550.34;5053629;28;20037;-71
2022/01/10 06:34:42;;;;;;;109.88;65.03;;;;;;;-0.62;100.00;101568.72;5053136;28;20021;-72
2022/01/10 06:37:07;;;;;;;104.55;64.55;;;;;;;-0.61;100.00;101573.09;5053867;28;20032;-71
2022/01/10 06:39:33;;;;;;;105.20;61.25;;;;;;;-0.57;100.00;101576.00;5053021;28;20021;-72
2022/01/10 06:41:58;;;;;;;102.55;64.65;;;;;;;-0.56;100.00;101577.75;5053769;28;20112;-72
2022/01/10 06:44:24;;;;;;;103.05;62.53;;;;;;;-0.56;100.00;101576.88;5051996;28;20036;-69
2022/01/10 06:46:50;;;;;;;102.90;62.25;;;;;;;-0.56;100.00;101577.75;5051245;28;20053;-71
2022/01/10 06:49:15;;;;;;;102.10;64.35;;;;;;;-0.55;100.00;101592.56;5052754;28;20052;-71
2022/01/10 06:51:41;;;;;;;108.25;65.43;;;;;;;-0.54;100.00;101590.84;5053145;28;20029;-72
2022/01/10 06:54:06;;;;;;;106.32;64.25;;;;;;;-0.54;100.00;101591.75;5053106;28;20398;-71
2022/01/10 06:56:31;;;;;;;95.88;61.45;;;;;;;-0.51;100.00;101595.34;5053154;28;20036;-71
2022/01/10 06:58:57;;;;;;;97.75;60.42;;;;;;;-0.51;100.00;101600.53;5053000;28;20032;-71
2022/01/10 07:01:22;;;;;;;99.35;61.28;;;;;;;-0.54;100.00;101601.22;5052898;28;20057;-69
2022/01/10 07:03:48;;;;;;;99.95;61.38;;;;;;;-0.52;100.00;101615.22;5052799;28;20391;-70
2022/01/10 07:06:13;;;;;;;101.72;61.97;;;;;;;-0.53;100.00;101629.00;5053070;28;20116;-70
2022/01/10 07:08:39;;;;;;;100.10;60.60;;;;;;;-0.51;100.00;101632.63;5052728;28;20077;-70
2022/01/10 07:11:04;;;;;;;96.53;58.97;;;;;;;-0.49;100.00;101637.91;5053045;28;20104;-71
2022/01/10 07:13:29;;;;;;;96.65;58.17;;;;;;;-0.49;100.00;101653.50;5051986;28;20045;-70
2022/01/10 07:15:55;;;;;;;97.15;60.13;;;;;;;-0.51;100.00;101643.00;5052881;28;20029;-71
2022/01/10 07:18:20;;;;;;;95.07;58.97;;;;;;;-0.51;100.00;101645.63;5052756;28;20036;-72
2022/01/10 07:20:45;;;;;;;97.45;59.70;;;;;;;-0.51;100.00;101640.41;5051757;28;20022;-72
2022/01/10 07:23:11;;;;;;;97.85;60.75;;;;;;;-0.52;100.00;101646.41;5052722;28;20025;-72
2022/01/10 07:25:37;;;;;;;92.57;57.63;;;;;;;-0.51;100.00;101658.59;5052859;28;20029;-72
2022/01/10 07:28:02;;;;;;;96.35;59.20;;;;;;;-0.52;100.00;101677.56;5051291;28;20028;-71
2022/01/10 07:30:28;;;;;;;100.32;60.80;;;;;;;-0.58;100.00;101674.59;5052014;28;20048;-72
2022/01/10 07:32:53;;;;;;;94.30;59.17;;;;;;;-0.64;100.00;101676.78;5052220;28;20504;-71
2022/01/10 07:35:19;;;;;;;94.07;58.00;;;;;;;-0.70;100.00;101687.69;5052509;28;20423;-71
2022/01/10 07:37:44;;;;;;;94.00;59.97;;;;;;;-0.74;100.00;101691.81;5052409;28;20025;-73
2022/01/10 07:40:10;;;;;;;98.13;58.40;;;;;;;-0.77;100.00;101706.28;5051920;28;20392;-73
2022/01/10 07:42:36;;;;;;;98.68;59.90;;;;;;;-0.81;100.00;101700.00;5052184;28;20033;-73
2022/01/10 07:45:03;;;;;;;94.10;58.42;;;;;;;-0.85;100.00;101707.50;5052039;28;20017;-72
2022/01/10 07:47:28;;;;;;;95.20;59.08;;;;;;;-0.85;100.00;101713.59;5052172;28;20029;-72
2022/01/10 07:49:54;;;;;;;101.72;59.50;;;;;;;-0.85;100.00;101718.78;5051350;28;20062;-73
2022/01/10 07:52:19;;;;;;;103.13;60.13;;;;;;;-0.84;100.00;101724.88;5052075;28;20059;-73
2022/01/10 07:54:44;;;;;;;103.72;61.88;;;;;;;-0.87;100.00;101728.19;5052360;28;20064;-73
2022/01/10 07:57:10;;;;;;;110.82;62.88;;;;;;;-0.90;100.00;101736.66;5051399;28;20032;-72
2022/01/10 07:59:35;;;;;;;110.90;66.15;;;;;;;-0.89;100.00;101742.72;5051856;28;20032;-75
2022/01/10 08:02:02;;;;;;;109.45;64.85;;;;;;;-0.87;100.00;101754.13;5051305;28;20055;-75
2022/01/10 08:04:27;;;;;;;109.90;63.50;;;;;;;-0.86;100.00;101753.31;5051976;28;20041;-72
2022/01/10 08:06:53;;;;;;;118.13;67.78;;;;;;;-0.86;100.00;101761.09;5051529;28;20071;-72
2022/01/10 08:09:18;;;;;;;110.43;63.88;;;;;;;-0.84;100.00;101769.03;5051244;28;20083;-73
2022/01/10 08:11:43;;;;;;;112.00;61.83;;;;;;;-0.81;100.00;101772.72;5052084;28;20017;-72
2022/01/10 08:14:09;;;;;;;107.90;63.63;;;;;;;-0.80;100.00;101769.31;5051527;28;20437;-72
2022/01/10 08:16:34;;;;;;;113.68;64.60;;;;;;;-0.76;100.00;101773.00;5051546;28;20112;-73
2022/01/10 08:19:00;;;;;;;110.82;64.75;;;;;;;-0.76;100.00;101775.59;5050076;28;20041;-72
2022/01/10 08:21:26;;;;;;;110.15;64.13;;;;;;;-0.69;100.00;101782.09;5049951;28;20029;-72
2022/01/10 08:23:51;;;;;;;117.63;65.97;;;;;;;-0.59;100.00;101787.97;5051001;28;20033;-72
2022/01/10 08:26:16;;;;;;;111.28;63.88;;;;;;;-0.54;100.00;101784.00;5065522;28;20045;-73
2022/01/10 08:28:42;;;;;;;116.28;63.15;;;;;;;-0.51;100.00;101793.69;5051201;28;20041;-76
2022/01/10 08:31:09;;;;;;;109.15;63.67;;;;;;;-0.47;100.00;101800.84;5050983;28;20403;-73
2022/01/10 08:33:36;;;;;;;102.65;58.63;;;;;;;-0.42;100.00;101806.38;5051291;28;20032;-72
2022/01/10 08:36:02;;;;;;;98.97;57.50;;;;;;;-0.36;100.00;101817.16;5050970;28;20422;-73
2022/01/10 08:38:27;;;;;;;99.07;57.25;;;;;;;-0.27;100.00;101824.63;5050977;28;20086;-72
2022/01/10 08:40:53;;;;;;;97.32;56.60;;;;;;;-0.19;100.00;101836.41;5051045;28;20462;-73
2022/01/10 08:43:18;;;;;;;94.05;56.28;;;;;;;-0.14;100.00;101837.59;5051165;28;20115;-73
2022/01/10 08:45:44;;;;;;;94.25;53.78;;;;;;;-0.10;100.00;101843.88;5047361;28;20547;-71
2022/01/10 08:48:10;;;;;;;90.38;53.25;;;;;;;-0.04;100.00;101852.97;5051127;28;20075;-71
2022/01/10 08:50:36;;;;;;;87.00;53.55;;;;;;;0.03;100.00;101850.75;5050705;28;20108;-71
2022/01/10 08:53:06;;;;;;;81.88;52.13;;;;;;;0.11;100.00;101865.16;5050100;28;20129;-71
2022/01/10 08:55:32;;;;;;;87.70;51.90;;;;;;;0.18;100.00;101867.34;5051552;28;20064;-71
2022/01/10 08:57:58;;;;;;;81.32;51.58;;;;;;;0.27;100.00;101872.22;5050403;28;20507;-71
2022/01/10 09:00:23;;;;;;;75.20;48.75;;;;;;;0.28;100.00;101864.50;5050869;28;20071;-69
2022/01/10 09:02:49;;;;;;;72.05;46.33;;;;;;;0.32;100.00;101887.31;5045513;28;20041;-70
2022/01/10 09:05:14;;;;;;;66.50;43.67;;;;;;;0.33;100.00;101885.59;5051467;28;20468;-69
2022/01/10 09:07:40;;;;;;;65.20;43.28;;;;;;;0.32;100.00;101881.19;5053188;28;20032;-68
2022/01/10 09:10:07;;;;;;;65.25;42.53;;;;;;;0.34;100.00;101887.41;5052890;28;20080;-69
2022/01/10 09:12:32;;;;;;;64.13;42.47;;;;;;;0.38;100.00;101891.09;5052888;28;20029;-69
2022/01/10 09:14:58;;;;;;;61.47;40.60;;;;;;;0.40;100.00;101900.78;5052976;28;20124;-69
2022/01/10 09:17:23;;;;;;;61.53;39.20;;;;;;;0.45;100.00;101895.88;5052769;28;20559;-68
2022/01/10 09:19:49;;;;;;;57.38;39.85;;;;;;;0.51;100.00;101899.78;5052789;28;20021;-68
2022/01/10 09:22:16;;;;;;;55.85;37.90;;;;;;;0.56;100.00;101900.03;5052836;28;20025;-70
2022/01/10 09:24:46;;;;;;;54.35;36.70;;;;;;;0.63;100.00;101911.75;5052869;28;20404;-69
2022/01/10 09:27:11;;;;;;;54.35;36.13;;;;;;;0.66;100.00;101918.03;5052869;28;20029;-68
2022/01/10 09:29:37;;;;;;;50.83;33.15;;;;;;;0.66;100.00;101914.53;5052716;28;20052;-69
2022/01/10 09:32:02;;;;;;;52.38;33.85;;;;;;;0.63;100.00;101915.25;5046414;28;20098;-71
2022/01/10 09:34:28;;;;;;;50.75;33.28;;;;;;;0.61;100.00;101908.13;5047706;28;20435;-71
2022/01/10 09:36:53;;;;;;;52.83;33.53;;;;;;;0.68;100.00;101919.03;5049601;28;20119;-69
2022/01/10 09:39:19;;;;;;;52.97;33.33;;;;;;;0.82;100.00;101921.59;5050183;28;20059;-69
2022/01/10 09:41:45;;;;;;;52.88;35.03;;;;;;;0.90;100.00;101922.03;5049503;28;20041;-68
2022/01/10 09:44:11;;;;;;;53.10;33.75;;;;;;;1.00;100.00;101934.81;5049367;28;20028;-68
2022/01/10 09:46:36;;;;;;;49.20;31.27;;;;;;;1.12;100.00;101925.16;5065052;28;20017;-68
2022/01/10 09:49:03;;;;;;;48.78;31.88;;;;;;;1.19;100.00;101929.00;5049900;28;20029;-68
2022/01/10 09:51:29;;;;;;;48.70;31.30;;;;;;;1.35;100.00;101941.25;5048155;28;20124;-68
2022/01/10 09:53:57;;;;;;;49.83;31.95;;;;;;;1.49;100.00;101944.66;5049629;28;20032;-68
2022/01/10 09:56:23;;;;;;;44.53;27.80;;;;;;;1.70;100.00;101942.41;5049489;28;20035;-67
2022/01/10 09:58:50;;;;;;;46.08;29.30;;;;;;;1.74;100.00;101958.31;5050285;28;20025;-69
2022/01/10 10:01:19;;;;;;;42.78;27.10;;;;;;;1.95;100.00;101955.13;5049730;28;20128;-70
2022/01/10 10:03:47;;;;;;;44.25;26.70;;;;;;;2.12;100.00;101958.72;5050003;28;20029;-72
2022/01/10 10:06:13;;;;;;;43.72;26.90;;;;;;;2.29;100.00;101969.19;5047206;28;20447;-70
2022/01/10 10:08:39;;;;;;;40.80;25.13;;;;;;;2.55;100.00;101968.03;5047186;28;20534;-68
2022/01/10 10:11:07;;;;;;;41.83;24.38;;;;;;;2.59;100.00;101980.44;5048401;28;20055;-69
2022/01/10 10:13:44;;;;;;;40.88;24.33;;;;;;;2.59;100.00;101990.88;5048028;28;20022;-69
2022/01/10 10:16:15;;;;;;;38.30;23.90;;;;;;;2.69;100.00;101995.78;5049703;28;20668;-68
2022/01/10 10:18:41;;;;;;;40.85;25.52;;;;;;;2.87;100.00;101997.59;5048739;28;20033;-68
2022/01/10 10:21:12;;;;;;;39.63;24.08;;;;;;;3.13;100.00;102004.22;5049932;28;20497;-67
2022/01/10 10:23:40;;;;;;;40.38;25.05;;;;;;;3.36;100.00;102008.06;5048274;28;20090;-67
2022/01/10 10:26:06;;;;;;;39.45;24.10;;;;;;;3.46;100.00;102018.19;5048939;28;20021;-69
2022/01/10 10:28:35;;;;;;;39.00;22.23;;;;;;;3.67;100.00;102027.97;5049791;28;20045;-67
2022/01/10 10:31:01;;;;;;;37.08;21.25;;;;;;;3.56;100.00;102024.78;5049797;28;20032;-68
2022/01/10 10:33:27;;;;;;;36.65;20.73;;;;;;;3.32;100.00;102027.03;5047465;28;20373;-68
2022/01/10 10:36:08;;;;;;;35.85;19.27;;;;;;;3.12;100.00;102021.63;5047813;28;20036;-69
2022/01/10 10:38:34;;;;;;;35.80;20.70;;;;;;;3.21;100.00;102022.94;5047560;28;20033;-68
2022/01/10 10:41:02;;;;;;;37.22;20.55;;;;;;;3.42;100.00;102036.25;5049834;28;20017;-69
2022/01/10 10:43:35;;;;;;;36.13;20.95;;;;;;;3.49;100.00;102039.28;5049861;28;20033;-69
2022/01/10 10:46:03;;;;;;;36.03;20.20;;;;;;;4.05;100.00;102046.41;5051748;28;20108;-69
2022/01/10 10:48:30;;;;;;;35.58;19.55;;;;;;;4.40;100.00;102039.41;5052410;28;20028;-70
2022/01/10 10:50:58;;;;;;;35.50;19.98;;;;;;;4.81;100.00;102038.78;5055775;28;20475;-70
2022/01/10 10:53:27;;;;;;;33.15;19.27;;;;;;;4.93;100.00;102034.94;5055671;28;20017;-69
2022/01/10 10:55:52;;;;;;;35.17;19.50;;;;;;;5.01;100.00;102036.16;5055643;28;20029;-69
2022/01/10 10:58:17;;;;;;;33.38;19.38;;;;;;;5.51;100.00;102039.28;5055427;28;20039;-70
2022/01/10 11:00:43;;;;;;;33.00;18.83;;;;;;;6.25;100.00;102043.34;5054039;28;20028;-69
2022/01/10 11:03:12;;;;;;;33.78;18.85;;;;;;;7.12;94.89;102044.09;5054115;28;20059;-69
2022/01/10 11:05:39;;;;;;;31.38;17.88;;;;;;;7.90;90.00;102060.94;5053963;28;20113;-69
2022/01/10 11:08:05;;;;;;;32.08;17.75;;;;;;;8.29;86.20;102052.59;5049628;28;20032;-68